Time;durP1;ratioP1;P1;durP2;ratioP2;P2;SDS_P1;SDS_P2;PMS_P1;PMS_P2;Temp;Humidity;BMP_temperature;BMP_pressure;BME280_temperature;BME280_humidity;BME280_pressure;Samples;Min_cycle;Max_cycle;Signal;HPM_P1;HPM_P2
2022/03/02 00:02:22;;;;;;;17.57;12.33;;;;;;;;;;4937918;28;20222;-73
2022/03/02 00:04:50;;;;;;;15.63;12.73;;;;;;;;;;4954335;28;20226;-71
2022/03/02 00:07:18;;;;;;;15.93;12.77;;;;;;;;;;4953380;28;20373;-72
2022/03/02 00:09:44;;;;;;;14.20;11.27;;;;;;;;;;4954235;28;20285;-72
2022/03/02 00:12:10;;;;;;;13.90;11.20;;;;;;;;;;4947538;28;20238;-70
2022/03/02 00:14:35;;;;;;;12.53;9.97;;;;;;;;;;4943313;28;20260;-71
2022/03/02 00:17:04;;;;;;;13.53;10.87;;;;;;;;;;4945580;28;20728;-71
2022/03/02 00:19:29;;;;;;;12.67;10.60;;;;;;;;;;4954123;28;20238;-71
2022/03/02 00:21:58;;;;;;;14.20;11.10;;;;;;;;;;4961824;28;20222;-70
2022/03/02 00:24:28;;;;;;;12.90;10.67;;;;;;;;;;4961508;28;20218;-72
2022/03/02 00:26:54;;;;;;;12.57;10.73;;;;;;;;;;4954224;28;20314;-70
2022/03/02 00:29:19;;;;;;;16.13;10.20;;;;;;;;;;4961663;28;20225;-71
2022/03/02 00:31:47;;;;;;;13.23;10.40;;;;;;;;;;4950208;28;20228;-69
2022/03/02 00:34:13;;;;;;;15.77;11.17;;;;;;;;;;4940019;28;20230;-71
2022/03/02 00:36:38;;;;;;;13.37;10.70;;;;;;;;;;4950250;28;20245;-71
2022/03/02 00:39:06;;;;;;;15.30;11.23;;;;;;;;;;4955652;28;20709;-71
2022/03/02 00:41:32;;;;;;;13.27;10.80;;;;;;;;;;4956068;28;20301;-70
2022/03/02 00:43:57;;;;;;;14.10;11.03;;;;;;;;;;4965184;28;20704;-70
2022/03/02 00:46:29;;;;;;;12.83;10.47;;;;;;;;;;4974598;28;20946;-70
2022/03/02 00:48:56;;;;;;;15.47;11.10;;;;;;;;;;4921549;28;20234;-71
2022/03/02 00:51:21;;;;;;;13.83;10.70;;;;;;;;;;4949345;28;20586;-71
2022/03/02 00:53:49;;;;;;;15.87;10.60;;;;;;;;;;4974136;28;20226;-71
2022/03/02 00:56:15;;;;;;;14.37;10.97;;;;;;;;;;4941161;28;20256;-71
2022/03/02 00:58:40;;;;;;;12.50;9.87;;;;;;;;;;4971113;28;20230;-71
2022/03/02 01:01:08;;;;;;;12.30;9.80;;;;;;;;;;4964665;28;20756;-72
2022/03/02 01:03:33;;;;;;;13.60;10.33;;;;;;;;;;4932109;29;20732;-72
2022/03/02 01:06:03;;;;;;;13.80;10.43;;;;;;;;;;4959790;28;20230;-71
2022/03/02 01:08:29;;;;;;;12.17;9.43;;;;;;;;;;4976638;28;20234;-71
2022/03/02 01:10:56;;;;;;;13.23;9.80;;;;;;;;;;4957463;28;20226;-72
2022/03/02 01:13:22;;;;;;;14.03;10.30;;;;;;;;;;4925641;28;22521;-71
2022/03/02 01:15:50;;;;;;;14.03;10.20;;;;;;;;;;4963057;28;20226;-72
2022/03/02 01:18:18;;;;;;;15.33;10.87;;;;;;;;;;4968854;28;20298;-71
2022/03/02 01:20:44;;;;;;;13.57;11.23;;;;;;;;;;4979677;28;20282;-71
2022/03/02 01:23:12;;;;;;;13.47;10.37;;;;;;;;;;4953453;28;20222;-71
2022/03/02 01:25:37;;;;;;;13.87;10.80;;;;;;;;;;4962015;28;20222;-71
2022/03/02 01:28:08;;;;;;;16.20;10.80;;;;;;;;;;4961702;28;20622;-71
2022/03/02 01:30:36;;;;;;;14.40;11.00;;;;;;;;;;4932434;28;20781;-70
2022/03/02 01:33:06;;;;;;;13.07;10.90;;;;;;;;;;4942231;28;20225;-70
2022/03/02 01:35:32;;;;;;;13.83;10.30;;;;;;;;;;4949233;28;20226;-72
2022/03/02 01:37:57;;;;;;;11.90;10.30;;;;;;;;;;4959843;28;20733;-73
2022/03/02 01:40:23;;;;;;;12.97;10.83;;;;;;;;;;4953827;28;20228;-73
2022/03/02 01:42:51;;;;;;;15.87;10.97;;;;;;;;;;4956684;28;20321;-71
2022/03/02 01:45:24;;;;;;;14.87;10.37;;;;;;;;;;4973319;28;20218;-71
2022/03/02 01:47:52;;;;;;;13.03;10.90;;;;;;;;;;4965742;28;20647;-72
2022/03/02 01:50:20;;;;;;;13.23;10.87;;;;;;;;;;4973981;28;20226;-71
2022/03/02 01:52:48;;;;;;;15.80;11.20;;;;;;;;;;4946972;28;20245;-71
2022/03/02 01:55:14;;;;;;;15.87;11.17;;;;;;;;;;4972779;28;20313;-72
2022/03/02 01:57:43;;;;;;;13.77;11.40;;;;;;;;;;4938545;28;20594;-71
2022/03/02 02:00:11;;;;;;;15.10;11.33;;;;;;;;;;4944375;28;20594;-70
2022/03/02 02:02:40;;;;;;;15.20;11.23;;;;;;;;;;4924821;28;20226;-71
2022/03/02 02:05:06;;;;;;;15.27;11.73;;;;;;;;;;4956702;28;20300;-71
2022/03/02 02:07:32;;;;;;;16.07;11.87;;;;;;;;;;4940449;28;20248;-70
2022/03/02 02:10:00;;;;;;;15.77;11.17;;;;;;;;;;4957709;28;20705;-71
2022/03/02 02:12:25;;;;;;;14.47;11.50;;;;;;;;;;4933654;28;20317;-71
2022/03/02 02:14:53;;;;;;;14.43;11.57;;;;;;;;;;4953856;28;20585;-71
2022/03/02 02:17:18;;;;;;;16.40;11.03;;;;;;;;;;4965545;28;20297;-70
2022/03/02 02:19:44;;;;;;;14.97;11.03;;;;;;;;;;4952739;28;20300;-71
2022/03/02 02:22:09;;;;;;;14.87;11.53;;;;;;;;;;4954873;28;20689;-72
2022/03/02 02:24:37;;;;;;;13.03;10.77;;;;;;;;;;4956514;28;20237;-70
2022/03/02 02:27:05;;;;;;;12.03;10.13;;;;;;;;;;4947543;28;20222;-71
2022/03/02 02:29:36;;;;;;;14.50;10.97;;;;;;;;;;4947972;28;20221;-70
2022/03/02 02:32:01;;;;;;;16.50;10.80;;;;;;;;;;4939685;28;20226;-71
2022/03/02 02:34:27;;;;;;;13.67;10.90;;;;;;;;;;4955373;28;20233;-71
2022/03/02 02:36:52;;;;;;;14.27;10.97;;;;;;;;;;4948072;28;20289;-71
2022/03/02 02:39:20;;;;;;;12.70;9.73;;;;;;;;;;4922133;28;20320;-72
2022/03/02 02:41:45;;;;;;;13.53;10.90;;;;;;;;;;4955495;28;20697;-72
2022/03/02 02:44:11;;;;;;;15.23;11.17;;;;;;;;;;4955808;28;20289;-72
2022/03/02 02:46:47;;;;;;;15.03;12.13;;;;;;;;;;4987455;28;20214;-71
2022/03/02 02:49:12;;;;;;;14.57;10.87;;;;;;;;;;4960448;28;20279;-73
2022/03/02 02:51:38;;;;;;;13.27;10.13;;;;;;;;;;4944923;28;20287;-72
2022/03/02 02:54:06;;;;;;;14.80;11.00;;;;;;;;;;4947023;28;20709;-71
2022/03/02 02:56:31;;;;;;;13.87;10.50;;;;;;;;;;4974516;28;20214;-71
2022/03/02 02:59:02;;;;;;;13.93;10.40;;;;;;;;;;4953260;28;20749;-73
2022/03/02 03:01:30;;;;;;;14.63;11.00;;;;;;;;;;4942585;28;20241;-72
2022/03/02 03:03:58;;;;;;;14.13;11.33;;;;;;;;;;4970624;28;20230;-72
2022/03/02 03:06:25;;;;;;;15.23;11.23;;;;;;;;;;4933638;28;20361;-72
2022/03/02 03:08:53;;;;;;;15.30;11.80;;;;;;;;;;4950520;28;20321;-72
2022/03/02 03:11:19;;;;;;;14.70;11.43;;;;;;;;;;4954878;28;20312;-72
2022/03/02 03:13:47;;;;;;;14.30;11.13;;;;;;;;;;4939811;28;20706;-72
2022/03/02 03:16:17;;;;;;;13.47;11.07;;;;;;;;;;4943482;28;20630;-72
2022/03/02 03:18:42;;;;;;;16.33;11.67;;;;;;;;;;4946980;28;20317;-72
2022/03/02 03:21:08;;;;;;;15.63;10.90;;;;;;;;;;4937660;28;20310;-71
2022/03/02 03:23:34;;;;;;;16.73;11.80;;;;;;;;;;4962310;28;20218;-71
2022/03/02 03:26:00;;;;;;;14.37;10.73;;;;;;;;;;4947478;28;20234;-71
2022/03/02 03:28:28;;;;;;;16.10;12.07;;;;;;;;;;4931028;28;20292;-71
2022/03/02 03:30:53;;;;;;;15.37;11.30;;;;;;;;;;4955331;28;20217;-71
2022/03/02 03:33:19;;;;;;;15.37;11.10;;;;;;;;;;4961755;28;20341;-71
2022/03/02 03:35:49;;;;;;;15.73;11.20;;;;;;;;;;4961320;28;20663;-71
2022/03/02 03:38:19;;;;;;;14.30;11.10;;;;;;;;;;4935041;28;20222;-70
2022/03/02 03:40:44;;;;;;;15.30;11.43;;;;;;;;;;4934875;28;20229;-71
2022/03/02 03:43:10;;;;;;;14.70;11.40;;;;;;;;;;4937603;28;20257;-72
2022/03/02 03:45:36;;;;;;;15.97;11.47;;;;;;;;;;4938870;28;20230;-71
2022/03/02 03:48:02;;;;;;;13.83;11.77;;;;;;;;;;4954613;28;20206;-72
2022/03/02 03:50:30;;;;;;;13.43;10.83;;;;;;;;;;4954426;28;20218;-71
2022/03/02 03:52:58;;;;;;;15.93;10.67;;;;;;;;;;4946202;28;20222;-71
2022/03/02 03:55:24;;;;;;;16.30;11.13;;;;;;;;;;4946725;28;20219;-71
2022/03/02 03:57:49;;;;;;;15.13;11.40;;;;;;;;;;4946580;28;20337;-71
2022/03/02 04:00:17;;;;;;;16.03;11.67;;;;;;;;;;4917552;29;20316;-71
2022/03/02 04:02:43;;;;;;;14.43;11.40;;;;;;;;;;4946535;28;20600;-70
2022/03/02 04:05:11;;;;;;;14.77;11.47;;;;;;;;;;4934198;28;20218;-72
2022/03/02 04:07:41;;;;;;;14.37;12.17;;;;;;;;;;4977357;28;20287;-71
2022/03/02 04:10:13;;;;;;;14.13;11.80;;;;;;;;;;4942406;28;20292;-72
2022/03/02 04:12:43;;;;;;;14.97;11.00;;;;;;;;;;4967608;28;20245;-70
2022/03/02 04:15:10;;;;;;;14.57;11.43;;;;;;;;;;4941910;28;20233;-70
2022/03/02 04:17:38;;;;;;;17.10;12.93;;;;;;;;;;4952726;28;20667;-71
2022/03/02 04:20:06;;;;;;;16.20;11.53;;;;;;;;;;4957725;28;20225;-71
2022/03/02 04:22:32;;;;;;;12.33;10.30;;;;;;;;;;4934216;28;20214;-71
2022/03/02 04:24:58;;;;;;;15.03;11.37;;;;;;;;;;4936221;28;20660;-70
2022/03/02 04:27:23;;;;;;;14.27;10.93;;;;;;;;;;4951113;28;20218;-71
2022/03/02 04:29:48;;;;;;;13.90;11.40;;;;;;;;;;4942913;28;20300;-70
2022/03/02 04:32:14;;;;;;;13.47;10.67;;;;;;;;;;4949345;28;20664;-71
2022/03/02 04:34:40;;;;;;;13.57;11.33;;;;;;;;;;4949910;28;20259;-71
2022/03/02 04:37:08;;;;;;;16.67;11.97;;;;;;;;;;4956802;28;20560;-71
2022/03/02 04:39:33;;;;;;;15.23;11.27;;;;;;;;;;4924185;28;20288;-72
2022/03/02 04:42:01;;;;;;;14.10;10.83;;;;;;;;;;4942236;28;20226;-70
2022/03/02 04:44:27;;;;;;;15.80;11.37;;;;;;;;;;4934106;28;20352;-71
2022/03/02 04:46:56;;;;;;;15.57;11.67;;;;;;;;;;4981980;28;20322;-69
2022/03/02 04:49:25;;;;;;;14.93;11.50;;;;;;;;;;4939380;28;20276;-72
2022/03/02 04:51:51;;;;;;;14.67;10.90;;;;;;;;;;4923914;28;20218;-72
2022/03/02 04:57:06;;;;;;;15.47;12.40;;;;;;;;;;4974188;28;20229;-70
2022/03/02 04:59:32;;;;;;;18.53;11.90;;;;;;;;;;4949274;28;20316;-71
2022/03/02 05:01:57;;;;;;;16.23;12.43;;;;;;;;;;4940702;28;20310;-71
2022/03/02 05:04:26;;;;;;;17.47;12.50;;;;;;;;;;4949112;28;20225;-73
2022/03/02 05:06:52;;;;;;;16.60;12.50;;;;;;;;;;4957612;28;20242;-70
2022/03/02 05:09:21;;;;;;;15.87;11.97;;;;;;;;;;4973910;28;20237;-71
2022/03/02 05:11:49;;;;;;;14.97;12.10;;;;;;;;;;4940693;28;20223;-71
2022/03/02 05:14:18;;;;;;;16.67;12.23;;;;;;;;;;4951317;28;20652;-71
2022/03/02 05:16:46;;;;;;;15.00;11.50;;;;;;;;;;4983975;28;20602;-71
2022/03/02 05:19:11;;;;;;;14.50;11.33;;;;;;;;;;4942286;28;20226;-72
2022/03/02 05:21:37;;;;;;;17.00;11.60;;;;;;;;;;4968153;28;20297;-71
2022/03/02 05:24:08;;;;;;;16.37;12.07;;;;;;;;;;4949353;28;20218;-71
2022/03/02 05:26:39;;;;;;;17.97;12.23;;;;;;;;;;4934668;28;20301;-70
2022/03/02 05:29:04;;;;;;;16.10;11.77;;;;;;;;;;4936705;28;20592;-70
2022/03/02 05:31:30;;;;;;;16.77;12.23;;;;;;;;;;4951919;28;20214;-71
2022/03/02 05:33:55;;;;;;;16.63;11.63;;;;;;;;;;4953017;28;20253;-71
2022/03/02 05:36:23;;;;;;;19.27;12.63;;;;;;;;;;4938384;28;20329;-70
2022/03/02 05:38:51;;;;;;;14.83;12.03;;;;;;;;;;4945144;28;20238;-70
2022/03/02 05:41:17;;;;;;;13.53;10.97;;;;;;;;;;4941166;28;20704;-70
2022/03/02 05:43:45;;;;;;;17.87;11.87;;;;;;;;;;4954510;28;20220;-71
2022/03/02 05:46:13;;;;;;;15.33;11.67;;;;;;;;;;4941129;28;20222;-71
2022/03/02 05:48:38;;;;;;;16.83;11.43;;;;;;;;;;4954941;28;20227;-72
2022/03/02 05:51:06;;;;;;;13.17;11.13;;;;;;;;;;4947973;28;20214;-71
2022/03/02 05:53:34;;;;;;;14.50;11.43;;;;;;;;;;4961163;28;20722;-71
2022/03/02 05:56:00;;;;;;;15.03;11.77;;;;;;;;;;4961726;28;20226;-71
2022/03/02 05:58:25;;;;;;;16.50;10.93;;;;;;;;;;4973166;28;20281;-70
2022/03/02 06:00:53;;;;;;;13.53;11.03;;;;;;;;;;4941092;28;20232;-70
2022/03/02 06:03:20;;;;;;;21.33;13.57;;;;;;;;;;4947571;28;20229;-71
2022/03/02 06:05:48;;;;;;;16.00;11.83;;;;;;;;;;4941296;28;20732;-70
2022/03/02 06:08:13;;;;;;;15.53;11.80;;;;;;;;;;4973080;28;20210;-71
2022/03/02 06:10:41;;;;;;;19.93;12.27;;;;;;;;;;4973626;28;20230;-70
2022/03/02 06:13:07;;;;;;;17.20;12.33;;;;;;;;;;4946378;28;20251;-72
2022/03/02 06:15:33;;;;;;;17.33;12.23;;;;;;;;;;4971594;28;20246;-70
2022/03/02 06:18:03;;;;;;;14.57;11.80;;;;;;;;;;4948987;28;20278;-72
2022/03/02 06:20:29;;;;;;;16.83;12.47;;;;;;;;;;4949864;28;20234;-71
2022/03/02 06:22:57;;;;;;;15.27;11.90;;;;;;;;;;4918056;28;20564;-72
2022/03/02 06:25:28;;;;;;;14.67;12.20;;;;;;;;;;4929240;28;20237;-71
2022/03/02 06:27:56;;;;;;;14.97;11.60;;;;;;;;;;4952984;28;20221;-72
2022/03/02 06:30:26;;;;;;;13.47;11.53;;;;;;;;;;4955440;28;20712;-73
2022/03/02 06:32:54;;;;;;;14.63;11.73;;;;;;;;;;4972117;28;20236;-72
2022/03/02 06:35:22;;;;;;;15.20;11.53;;;;;;;;;;4931434;28;20214;-72
2022/03/02 06:37:47;;;;;;;15.53;11.10;;;;;;;;;;4961056;28;20230;-70
2022/03/02 06:40:13;;;;;;;15.67;11.13;;;;;;;;;;4924126;28;20229;-73
2022/03/02 06:42:59;;;;;;;14.83;11.77;;;;;;;;;;4934359;28;20280;-70
2022/03/02 06:45:48;;;;;;;14.00;11.23;;;;;;;;;;4965357;28;20225;-70
2022/03/02 06:48:29;;;;;;;14.53;10.83;;;;;;;;;;4937027;28;20245;-72
2022/03/02 06:51:01;;;;;;;14.30;11.33;;;;;;;;;;4951176;28;20250;-72
2022/03/02 06:53:37;;;;;;;14.83;11.53;;;;;;;;;;4935982;28;20230;-70
2022/03/02 06:56:07;;;;;;;16.77;11.63;;;;;;;;;;4923881;28;20233;-71
2022/03/02 06:58:53;;;;;;;17.53;12.23;;;;;;;;;;4913776;28;20231;-70
2022/03/02 07:01:27;;;;;;;15.83;12.33;;;;;;;;;;4948625;28;20228;-71
2022/03/02 07:03:56;;;;;;;18.63;12.63;;;;;;;;;;4950023;28;20218;-70
2022/03/02 07:06:24;;;;;;;15.90;12.27;;;;;;;;;;4944010;28;20226;-70
2022/03/02 07:08:50;;;;;;;15.57;12.87;;;;;;;;;;4940797;28;20642;-71
2022/03/02 07:11:16;;;;;;;16.23;12.13;;;;;;;;;;4955943;28;20689;-71
2022/03/02 07:13:51;;;;;;;15.40;12.10;;;;;;;;;;4939465;28;20312;-71
2022/03/02 07:16:17;;;;;;;14.30;11.47;;;;;;;;;;4942594;28;20307;-72
2022/03/02 07:18:46;;;;;;;13.40;11.37;;;;;;;;;;4932150;28;20238;-72
2022/03/02 07:21:14;;;;;;;15.90;11.53;;;;;;;;;;4954207;28;20221;-71
2022/03/02 07:24:10;;;;;;;14.63;10.87;;;;;;;;;;4963473;28;20321;-71
2022/03/02 07:26:36;;;;;;;15.23;11.23;;;;;;;;;;4943139;28;20698;-69
2022/03/02 07:29:02;;;;;;;14.53;11.53;;;;;;;;;;4940751;28;20224;-71
2022/03/02 07:31:27;;;;;;;14.17;11.27;;;;;;;;;;4972382;28;20641;-73
2022/03/02 07:33:53;;;;;;;14.57;11.20;;;;;;;;;;4948677;28;20234;-72
2022/03/02 07:36:20;;;;;;;14.03;11.43;;;;;;;;;;4947598;28;20218;-74
2022/03/02 07:38:45;;;;;;;13.93;11.77;;;;;;;;;;4963220;28;20254;-72
2022/03/02 07:41:13;;;;;;;16.33;11.97;;;;;;;;;;4971483;28;20222;-70
2022/03/02 07:43:42;;;;;;;17.50;12.50;;;;;;;;;;4943780;28;20224;-71
2022/03/02 07:46:11;;;;;;;16.63;12.10;;;;;;;;;;4954321;28;20226;-71
2022/03/02 07:48:37;;;;;;;15.77;12.67;;;;;;;;;;4922184;28;20218;-70
2022/03/02 07:51:04;;;;;;;16.03;12.33;;;;;;;;;;4946830;28;20228;-72
2022/03/02 07:53:45;;;;;;;14.97;11.77;;;;;;;;;;4942197;28;20236;-70
2022/03/02 07:56:11;;;;;;;16.00;11.70;;;;;;;;;;4940605;28;20607;-69
2022/03/02 07:58:42;;;;;;;17.03;12.33;;;;;;;;;;4919729;28;20253;-70
2022/03/02 08:01:08;;;;;;;16.53;11.60;;;;;;;;;;4945461;28;20222;-70
2022/03/02 08:03:40;;;;;;;13.93;11.27;;;;;;;;;;4940173;28;20701;-71
2022/03/02 08:06:06;;;;;;;14.03;11.07;;;;;;;;;;4915948;28;20222;-71
2022/03/02 08:08:35;;;;;;;15.03;11.73;;;;;;;;;;4938335;28;20276;-71
2022/03/02 08:11:00;;;;;;;12.53;10.33;;;;;;;;;;4942987;28;20704;-71
2022/03/02 08:13:33;;;;;;;13.93;11.27;;;;;;;;;;4920550;28;20694;-71
2022/03/02 08:16:00;;;;;;;14.93;10.50;;;;;;;;;;4955087;28;20222;-70
2022/03/02 08:18:29;;;;;;;14.77;10.97;;;;;;;;;;4939620;28;20237;-71
2022/03/02 08:20:57;;;;;;;14.60;11.20;;;;;;;;;;4939052;28;20222;-70
2022/03/02 08:23:24;;;;;;;16.87;12.07;;;;;;;;;;4966578;28;20288;-73
2022/03/02 08:25:53;;;;;;;15.20;12.63;;;;;;;;;;4974825;28;20215;-71
2022/03/02 08:28:19;;;;;;;18.10;12.27;;;;;;;;;;4953562;28;20642;-71
2022/03/02 08:30:51;;;;;;;15.13;11.47;;;;;;;;;;4945526;28;20732;-72
2022/03/02 08:33:21;;;;;;;13.50;10.83;;;;;;;;;;4951224;28;20222;-72
2022/03/02 08:35:46;;;;;;;13.90;11.10;;;;;;;;;;4938226;28;20222;-71
2022/03/02 08:38:12;;;;;;;13.93;10.57;;;;;;;;;;4942087;28;20221;-71
2022/03/02 08:40:38;;;;;;;14.33;10.30;;;;;;;;;;4926435;28;20226;-71
2022/03/02 08:43:05;;;;;;;13.63;11.20;;;;;;;;;;4937468;28;20234;-71
2022/03/02 08:45:33;;;;;;;14.00;10.83;;;;;;;;;;4959389;28;20313;-71
2022/03/02 08:48:03;;;;;;;13.97;10.60;;;;;;;;;;4938088;28;20801;-71
2022/03/02 08:50:29;;;;;;;12.93;10.00;;;;;;;;;;4953675;28;20230;-72
2022/03/02 08:52:56;;;;;;;12.53;10.27;;;;;;;;;;4963618;28;20245;-71
2022/03/02 08:55:28;;;;;;;16.00;10.30;;;;;;;;;;4949063;28;21451;-72
2022/03/02 08:57:53;;;;;;;12.40;9.47;;;;;;;;;;4941456;28;20653;-71
2022/03/02 09:00:19;;;;;;;15.10;9.33;;;;;;;;;;4955714;28;20270;-72
2022/03/02 09:02:45;;;;;;;11.73;8.70;;;;;;;;;;4961231;28;20273;-71
2022/03/02 09:05:11;;;;;;;13.73;8.93;;;;;;;;;;4939526;28;20214;-71
2022/03/02 09:07:36;;;;;;;15.70;11.10;;;;;;;;;;4941645;28;20325;-71
2022/03/02 09:10:12;;;;;;;11.13;8.77;;;;;;;;;;4931338;28;20217;-71
2022/03/02 09:12:41;;;;;;;10.00;8.50;;;;;;;;;;4974159;28;20226;-71
2022/03/02 09:15:09;;;;;;;14.87;9.33;;;;;;;;;;4941139;28;20712;-71
2022/03/02 09:17:35;;;;;;;9.87;8.50;;;;;;;;;;4926918;28;20301;-72
2022/03/02 09:20:01;;;;;;;11.87;8.90;;;;;;;;;;4957679;28;20312;-71
2022/03/02 09:22:32;;;;;;;11.27;8.80;;;;;;;;;;4925517;28;20230;-71
2022/03/02 09:25:00;;;;;;;11.73;9.13;;;;;;;;;;4974360;28;20242;-72
2022/03/02 09:27:30;;;;;;;9.50;8.07;;;;;;;;;;4938791;28;20229;-71
2022/03/02 09:29:59;;;;;;;12.03;7.73;;;;;;;;;;4925779;28;20218;-72
2022/03/02 09:32:30;;;;;;;11.17;7.90;;;;;;;;;;4950285;28;20640;-72
2022/03/02 09:34:57;;;;;;;8.83;7.50;;;;;;;;;;4923765;28;20245;-72
2022/03/02 09:37:23;;;;;;;10.43;7.70;;;;;;;;;;4919789;28;20720;-71
2022/03/02 09:39:54;;;;;;;9.83;7.50;;;;;;;;;;4976303;28;20226;-72
2022/03/02 09:42:30;;;;;;;8.93;7.27;;;;;;;;;;4932308;28;20311;-73
2022/03/02 09:45:03;;;;;;;11.20;7.53;;;;;;;;;;4956737;28;20730;-72
2022/03/02 09:47:43;;;;;;;10.03;7.73;;;;;;;;;;4956693;28;20229;-72
2022/03/02 09:50:09;;;;;;;12.33;10.37;;;;;;;;;;4959009;28;20222;-72
2022/03/02 09:52:40;;;;;;;10.47;8.30;;;;;;;;;;4924744;28;20295;-73
2022/03/02 09:55:09;;;;;;;13.77;11.63;;;;;;;;;;4951202;28;20710;-72
2022/03/02 09:57:40;;;;;;;10.87;7.87;;;;;;;;;;4949025;28;20222;-72
2022/03/02 10:00:06;;;;;;;10.17;8.37;;;;;;;;;;4955576;28;20318;-71
2022/03/02 10:02:37;;;;;;;8.93;8.03;;;;;;;;;;4962240;28;20218;-72
2022/03/02 10:05:05;;;;;;;9.93;7.83;;;;;;;;;;4950907;28;20237;-72
2022/03/02 10:07:31;;;;;;;10.80;8.50;;;;;;;;;;4954984;28;20256;-72
2022/03/02 10:10:17;;;;;;;10.73;8.40;;;;;;;;;;4940472;28;20277;-72
2022/03/02 10:12:45;;;;;;;11.30;7.73;;;;;;;;;;4939170;28;20225;-72
2022/03/02 10:15:14;;;;;;;10.77;8.47;;;;;;;;;;4938477;28;20605;-72
2022/03/02 10:17:41;;;;;;;8.83;7.50;;;;;;;;;;4953869;28;20226;-72
2022/03/02 10:20:14;;;;;;;10.87;7.27;;;;;;;;;;4931948;28;20222;-72
2022/03/02 10:22:39;;;;;;;12.53;9.00;;;;;;;;;;4935352;28;20251;-72
2022/03/02 10:25:09;;;;;;;10.90;8.27;;;;;;;;;;4973091;28;20697;-74
2022/03/02 10:27:43;;;;;;;8.77;7.53;;;;;;;;;;4958155;28;20226;-71
2022/03/02 10:30:11;;;;;;;10.37;7.60;;;;;;;;;;4946134;28;20309;-73
2022/03/02 10:32:44;;;;;;;9.37;7.73;;;;;;;;;;4948630;28;20233;-73
2022/03/02 10:35:11;;;;;;;10.07;6.73;;;;;;;;;;4930793;28;20214;-73
2022/03/02 10:38:06;;;;;;;9.80;8.27;;;;;;;;;;4949011;28;20747;-72
2022/03/02 10:40:40;;;;;;;12.23;7.43;;;;;;;;;;4946459;28;20246;-72
2022/03/02 10:43:12;;;;;;;9.67;6.97;;;;;;;;;;4943030;28;20250;-73
2022/03/02 10:45:46;;;;;;;8.37;7.17;;;;;;;;;;4961076;28;20611;-72
2022/03/02 10:48:21;;;;;;;8.20;6.77;;;;;;;;;;4935370;28;20218;-73
2022/03/02 10:50:54;;;;;;;7.03;6.33;;;;;;;;;;4972425;28;20217;-72
2022/03/02 10:53:20;;;;;;;8.23;6.90;;;;;;;;;;4919435;28;20230;-71
2022/03/02 10:55:52;;;;;;;8.63;7.13;;;;;;;;;;4948804;28;20218;-71
2022/03/02 10:58:21;;;;;;;10.70;7.00;;;;;;;;;;4925266;28;20234;-71
2022/03/02 11:00:47;;;;;;;8.53;6.77;;;;;;;;;;4945183;28;20276;-71
2022/03/02 11:03:13;;;;;;;9.13;6.90;;;;;;;;;;4924115;28;20226;-72
2022/03/02 11:05:41;;;;;;;8.90;6.70;;;;;;;;;;4954230;28;20630;-71
2022/03/02 11:08:06;;;;;;;7.80;7.00;;;;;;;;;;4935442;28;20219;-71
2022/03/02 11:10:39;;;;;;;8.87;7.30;;;;;;;;;;4932740;28;20293;-71
2022/03/02 11:13:15;;;;;;;8.43;7.10;;;;;;;;;;4937556;28;20370;-71
2022/03/02 11:15:50;;;;;;;10.43;7.33;;;;;;;;;;4947401;28;20875;-72
2022/03/02 11:18:35;;;;;;;9.23;6.93;;;;;;;;;;4939203;28;20308;-71
2022/03/02 11:21:03;;;;;;;8.37;6.73;;;;;;;;;;4955785;28;20584;-70
2022/03/02 11:23:48;;;;;;;9.33;7.60;;;;;;;;;;4936214;28;20255;-72
2022/03/02 11:26:27;;;;;;;8.90;7.72;;;;;;;;;;4941992;28;20441;-70
2022/03/02 11:28:57;;;;;;;9.47;7.50;;;;;;;;;;4963145;28;20284;-71
2022/03/02 11:31:26;;;;;;;8.87;7.20;;;;;;;;;;4966736;28;20213;-71
2022/03/02 11:34:09;;;;;;;9.27;7.27;;;;;;;;;;4953361;28;20225;-71
2022/03/02 11:36:35;;;;;;;9.10;7.40;;;;;;;;;;4945820;28;20659;-72
2022/03/02 11:39:03;;;;;;;9.53;7.67;;;;;;;;;;4953362;28;20226;-72
2022/03/02 11:41:33;;;;;;;8.87;7.50;;;;;;;;;;4953937;28;20310;-71
2022/03/02 11:44:00;;;;;;;8.27;7.00;;;;;;;;;;4922648;28;20237;-71
2022/03/02 11:46:25;;;;;;;9.07;7.67;;;;;;;;;;4970754;28;20226;-71
2022/03/02 11:48:51;;;;;;;8.83;7.10;;;;;;;;;;4948538;28;20214;-73
2022/03/02 11:51:23;;;;;;;9.40;7.43;;;;;;;;;;4936093;28;20276;-72
2022/03/02 11:53:56;;;;;;;8.40;7.50;;;;;;;;;;4952819;28;20249;-74
2022/03/02 11:56:23;;;;;;;9.37;7.93;;;;;;;;;;4925994;28;20219;-73
2022/03/02 11:59:10;;;;;;;8.73;7.23;;;;;;;;;;4954900;28;20246;-72
2022/03/02 12:01:52;;;;;;;7.97;7.17;;;;;;;;;;4960660;28;20217;-72
2022/03/02 12:04:18;;;;;;;9.73;7.90;;;;;;;;;;4937220;28;20217;-73
2022/03/02 12:06:51;;;;;;;9.20;6.23;;;;;;;;;;4950071;28;20877;-74
2022/03/02 12:09:28;;;;;;;9.60;6.87;;;;;;;;;;4949974;28;20249;-74
2022/03/02 12:12:16;;;;;;;8.40;6.70;;;;;;;;;;4935850;28;20232;-74
2022/03/02 12:14:53;;;;;;;9.43;6.40;;;;;;;;;;4949537;28;20229;-72
2022/03/02 12:17:21;;;;;;;9.53;7.47;;;;;;;;;;4938189;28;20304;-72
2022/03/02 12:19:54;;;;;;;8.43;7.33;;;;;;;;;;4970521;28;20230;-72
2022/03/02 12:22:25;;;;;;;9.10;6.90;;;;;;;;;;4965763;28;20226;-72
2022/03/02 12:24:51;;;;;;;9.43;7.83;;;;;;;;;;4934939;28;20226;-73
2022/03/02 12:27:31;;;;;;;9.37;7.63;;;;;;;;;;4913632;29;20219;-73
2022/03/02 12:30:07;;;;;;;10.03;7.53;;;;;;;;;;4974327;28;20233;-73
2022/03/02 12:32:36;;;;;;;9.27;7.67;;;;;;;;;;4967698;28;20225;-73
2022/03/02 12:35:07;;;;;;;8.10;7.30;;;;;;;;;;4961980;28;20222;-73
2022/03/02 12:37:35;;;;;;;9.27;6.97;;;;;;;;;;4949300;28;20233;-73
2022/03/02 12:40:06;;;;;;;9.73;6.90;;;;;;;;;;4938257;28;20234;-72
2022/03/02 12:42:32;;;;;;;10.50;7.07;;;;;;;;;;4946577;28;20214;-72
2022/03/02 12:44:57;;;;;;;8.30;7.03;;;;;;;;;;4941022;28;20284;-71
2022/03/02 12:47:28;;;;;;;8.10;7.23;;;;;;;;;;4956085;28;20218;-71
2022/03/02 12:49:53;;;;;;;8.97;6.90;;;;;;;;;;4958853;28;20225;-71
2022/03/02 12:52:21;;;;;;;7.83;7.00;;;;;;;;;;4936940;28;20217;-71
2022/03/02 12:55:08;;;;;;;8.67;7.30;;;;;;;;;;4954528;28;20659;-76
2022/03/02 12:57:46;;;;;;;8.17;7.37;;;;;;;;;;4948663;28;20245;-73
2022/03/02 13:00:17;;;;;;;7.77;6.97;;;;;;;;;;4933252;28;20230;-73
2022/03/02 13:02:53;;;;;;;8.33;6.93;;;;;;;;;;4952054;28;20301;-71
2022/03/02 13:05:53;;;;;;;7.13;6.37;;;;;;;;;;4955779;28;20237;-71
2022/03/02 13:08:22;;;;;;;9.17;7.43;;;;;;;;;;4921411;28;20218;-72
2022/03/02 13:10:50;;;;;;;8.03;6.90;;;;;;;;;;4975331;28;20222;-73
2022/03/02 13:13:34;;;;;;;8.20;6.73;;;;;;;;;;4949863;28;20229;-73
2022/03/02 13:16:24;;;;;;;8.60;6.77;;;;;;;;;;4955474;28;20676;-74
2022/03/02 13:18:52;;;;;;;8.60;6.70;;;;;;;;;;4939087;28;20288;-71
2022/03/02 13:21:23;;;;;;;6.80;6.10;;;;;;;;;;4954924;28;20230;-73
2022/03/02 13:24:05;;;;;;;7.77;6.97;;;;;;;;;;4935147;28;20232;-73
2022/03/02 13:26:33;;;;;;;8.00;7.10;;;;;;;;;;4941378;28;20232;-73
2022/03/02 13:29:14;;;;;;;9.70;7.27;;;;;;;;;;4943318;28;20233;-74
2022/03/02 13:31:54;;;;;;;7.23;5.93;;;;;;;;;;4959420;28;20223;-72
2022/03/02 13:34:24;;;;;;;6.97;6.23;;;;;;;;;;4943022;28;20230;-73
2022/03/02 13:36:51;;;;;;;7.30;5.73;;;;;;;;;;4958059;28;20245;-72
2022/03/02 13:39:22;;;;;;;6.63;5.97;;;;;;;;;;4956493;28;20218;-70
2022/03/02 13:41:54;;;;;;;6.97;6.27;;;;;;;;;;4946758;28;20727;-70
2022/03/02 13:44:31;;;;;;;6.73;5.93;;;;;;;;;;4956863;28;20236;-72
2022/03/02 13:47:14;;;;;;;7.73;6.67;;;;;;;;;;4962966;28;20800;-74
2022/03/02 13:49:57;;;;;;;8.00;6.33;;;;;;;;;;4955520;28;20226;-73
2022/03/02 13:52:28;;;;;;;7.43;5.77;;;;;;;;;;4970239;28;20238;-72
2022/03/02 13:55:28;;;;;;;9.37;6.70;;;;;;;;;;4976214;28;20280;-73
2022/03/02 13:58:18;;;;;;;6.70;6.00;;;;;;;;;;4950411;28;20281;-75
2022/03/02 14:00:43;;;;;;;6.80;6.10;;;;;;;;;;4937281;28;20229;-71
2022/03/02 14:03:24;;;;;;;12.53;6.60;;;;;;;;;;4938609;28;20217;-71
2022/03/02 14:05:50;;;;;;;7.70;6.90;;;;;;;;;;4945405;28;20283;-72
2022/03/02 14:08:18;;;;;;;6.93;6.20;;;;;;;;;;4939698;28;20698;-72
2022/03/02 14:10:45;;;;;;;7.13;6.27;;;;;;;;;;4938344;28;20214;-72
2022/03/02 14:13:13;;;;;;;6.13;5.53;;;;;;;;;;4938053;28;20234;-72
2022/03/02 14:15:41;;;;;;;7.13;6.43;;;;;;;;;;4949930;28;20253;-72
2022/03/02 14:18:07;;;;;;;7.83;6.70;;;;;;;;;;4955320;28;20222;-71
2022/03/02 14:20:34;;;;;;;7.20;6.30;;;;;;;;;;4937373;29;20231;-72
2022/03/02 14:23:07;;;;;;;7.80;7.10;;;;;;;;;;4936206;28;20297;-71
2022/03/02 14:26:17;;;;;;;7.00;6.30;;;;;;;;;;4957200;28;20244;-72
2022/03/02 14:29:15;;;;;;;7.50;6.50;;;;;;;;;;4940021;29;20297;-73
2022/03/02 14:32:07;;;;;;;7.53;6.23;;;;;;;;;;4977312;28;20214;-72
2022/03/02 14:34:56;;;;;;;7.10;6.40;;;;;;;;;;4960587;28;20237;-72
2022/03/02 14:37:36;;;;;;;8.37;6.87;;;;;;;;;;4956910;28;20229;-71
2022/03/02 14:40:12;;;;;;;8.40;6.30;;;;;;;;;;4940069;28;20229;-72
2022/03/02 14:42:49;;;;;;;7.80;6.70;;;;;;;;;;4958778;28;20230;-74
2022/03/02 14:45:19;;;;;;;9.43;6.20;;;;;;;;;;4955936;28;20221;-72